Altair — 9LC2000 — position and weather

sailwx.info

Track history (hours):
 
Tides and Currents Weather Stations Pressure Air Temp Water Temp Dewpoint Dewpoint Depression Visibility Wind Speed Wind Dir Waves Ship Positions

Altair

Last reported at 2016-Jul-26 10:33 UTC. Time now 2016-Jul-26 17:55 UTC.
Position N 40°41' E 029°04'.

Length 108 m; draft 3.5 m.

Type: Cargo ship. MMSI: 667021000.

Date/timePositionNaut miles runAvg speedWind from/ knotsBaromVisibWave heightAir tempDewpointWater temp
2016-Jul-26 10:33N 40°41' E 029°04'  
2016-Jul-24 06:18N 37°23' E 023°56'5 7.1
2016-Jul-24 05:33N 37°19' E 023°52'7 7.4
2016-Jul-24 04:33N 37°14' E 023°45'8 6.6
2016-Jul-24 03:23N 37°09' E 023°38'5 6.4
2016-Jul-24 02:32N 37°05' E 023°33'  
2016-Jul-20 05:34N 44°05' E 014°03'8 7.5
2016-Jul-20 04:33N 44°11' E 013°57'8 7.8
2016-Jul-20 03:33N 44°18' E 013°51'8 7.9
2016-Jul-20 02:34N 44°24' E 013°45'15 7.6
2016-Jul-20 00:33N 44°37' E 013°33'8 7.8
2016-Jul-19 23:33N 44°43' E 013°27'8 8.3
2016-Jul-19 22:33N 44°50' E 013°20'8 8.2
2016-Jul-19 21:34N 44°57' E 013°14'8 8.2
2016-Jul-19 20:33N 45°03' E 013°07'8 7.7
2016-Jul-19 19:33N 45°10' E 013°01'8 7.9
2016-Jul-19 18:33N 45°18' E 012°59'7 7.5
2016-Jul-19 17:34N 45°25' E 013°02'8 7.8
2016-Jul-19 16:33N 45°32' E 013°08'8 7.6
2016-Jul-19 15:33N 45°38' E 013°14'10 0.3
2016-Jul-18 05:24N 45°48' E 013°14'4 4.9
2016-Jul-18 04:33N 45°43' E 013°15'5 4.8
2016-Jul-18 03:30N 45°39' E 013°18'  
Track history (hours):
 
Tides and Currents Weather Stations Pressure Air Temp Water Temp Dewpoint Dewpoint Depression Visibility Wind Speed Wind Dir Waves Ship Positions

Altair

Last reported at 2016-Jul-26 10:33 UTC. Time now 2016-Jul-26 17:55 UTC.
Position N 40°41' E 029°04'.

Length 108 m; draft 3.5 m.

Type: Cargo ship. MMSI: 667021000.

Date/timePositionNaut miles runAvg speedWind from/ knotsBaromVisibWave heightAir tempDewpointWater temp
2016-Jul-26 10:33N 40°41' E 029°04'  
2016-Jul-24 06:18N 37°23' E 023°56'5 7.1
2016-Jul-24 05:33N 37°19' E 023°52'7 7.4
2016-Jul-24 04:33N 37°14' E 023°45'8 6.6
2016-Jul-24 03:23N 37°09' E 023°38'5 6.4
2016-Jul-24 02:32N 37°05' E 023°33'  
2016-Jul-20 05:34N 44°05' E 014°03'8 7.5
2016-Jul-20 04:33N 44°11' E 013°57'8 7.8
2016-Jul-20 03:33N 44°18' E 013°51'8 7.9
2016-Jul-20 02:34N 44°24' E 013°45'15 7.6
2016-Jul-20 00:33N 44°37' E 013°33'8 7.8
2016-Jul-19 23:33N 44°43' E 013°27'8 8.3
2016-Jul-19 22:33N 44°50' E 013°20'8 8.2
2016-Jul-19 21:34N 44°57' E 013°14'8 8.2
2016-Jul-19 20:33N 45°03' E 013°07'8 7.7
2016-Jul-19 19:33N 45°10' E 013°01'8 7.9
2016-Jul-19 18:33N 45°18' E 012°59'7 7.5
2016-Jul-19 17:34N 45°25' E 013°02'8 7.8
2016-Jul-19 16:33N 45°32' E 013°08'8 7.6
2016-Jul-19 15:33N 45°38' E 013°14'10 0.3
2016-Jul-18 05:24N 45°48' E 013°14'4 4.9
2016-Jul-18 04:33N 45°43' E 013°15'5 4.8
2016-Jul-18 03:30N 45°39' E 013°18'  

Dump ship's entire track history